Absecon, New Jersey
Current Conditions -  °F | °C
As of 4:54 AM on Thursday 27 Nov 2014 (Local Time) from KACY Reporting Station
Overcast Overcast  
Wind Chill: 30°   Ceiling: 7500
Heat Index: 36°   Visibility: 10mi
Dew Point: 33°   Wind: 7mph
Humidity: 89%   Direction: 300°WNW
Pressure: 29.97"   Gusts: NA
Location:  39.43°N, 74.51°W
Report Text: KACY 270954Z 30006KT 10SM FEW041 OVC075 02/01 A2997 RMK AO2 SLP148 T00220006
Loading
Personal Weather Stations






























Interactive Weather Map New forecast layout! Learn more

10-Day Weather Forecast

Advertisements
Track Severe Weather on mobile